createdAt,value
2018-11-29T00:00:00.921Z,5.40
2018-11-29T00:04:03.381Z,5.50
2018-11-29T00:08:05.855Z,4.60
2018-11-29T00:12:08.334Z,4.00
2018-11-29T00:16:10.717Z,4.80
2018-11-29T00:20:16.051Z,4.40
2018-11-29T00:24:18.408Z,4.40
2018-11-29T00:28:20.745Z,4.90
2018-11-29T00:32:23.125Z,4.40
2018-11-29T00:36:25.482Z,4.50
2018-11-29T00:40:27.870Z,4.50
2018-11-29T00:44:30.395Z,4.10
2018-11-29T00:48:32.741Z,4.60
2018-11-29T00:52:35.356Z,4.60
2018-11-29T00:56:37.750Z,4.30
2018-11-29T01:00:40.273Z,3.00
2018-11-29T01:04:42.891Z,4.50
2018-11-29T01:08:45.327Z,3.30
2018-11-29T01:12:48.317Z,4.90
2018-11-29T01:16:50.731Z,3.30
2018-11-29T01:20:53.086Z,4.40
2018-11-29T01:24:55.437Z,4.90
2018-11-29T01:28:57.751Z,4.60
2018-11-29T01:33:00.157Z,4.90
2018-11-29T01:37:02.542Z,4.20
2018-11-29T01:41:05.008Z,4.10
2018-11-29T01:45:07.382Z,4.40
2018-11-29T01:49:09.715Z,4.50
2018-11-29T01:53:12.062Z,4.90
2018-11-29T01:57:14.370Z,4.90
2018-11-29T02:01:16.792Z,5.50
2018-11-29T02:05:19.171Z,5.00
2018-11-29T02:09:21.533Z,4.80
2018-11-29T02:13:23.900Z,5.10
2018-11-29T02:17:26.228Z,4.70
2018-11-29T02:21:28.600Z,5.00
2018-11-29T02:25:30.965Z,5.10
2018-11-29T02:29:33.316Z,4.20
2018-11-29T02:33:35.710Z,5.70
2018-11-29T02:37:38.062Z,5.60
2018-11-29T02:41:40.422Z,6.20
2018-11-29T02:45:42.770Z,4.80
2018-11-29T02:49:45.159Z,5.40
2018-11-29T02:53:47.547Z,4.70
2018-11-29T02:57:50.182Z,4.90
2018-11-29T03:01:52.609Z,5.40
2018-11-29T03:05:54.969Z,4.60
2018-11-29T03:09:57.397Z,5.30
2018-11-29T03:13:59.776Z,4.70
2018-11-29T03:18:02.107Z,4.90
2018-11-29T03:22:04.620Z,4.00
2018-11-29T03:26:06.971Z,4.10
2018-11-29T03:30:18.702Z,4.50
2018-11-29T03:34:21.099Z,3.60
2018-11-29T03:38:23.460Z,4.40
2018-11-29T03:42:25.842Z,4.00
2018-11-29T03:46:28.131Z,3.40
2018-11-29T03:50:30.498Z,4.50
2018-11-29T03:54:32.846Z,4.00
2018-11-29T03:58:35.311Z,3.60
2018-11-29T04:02:37.639Z,4.60
2018-11-29T04:06:39.995Z,4.30
2018-11-29T04:10:42.386Z,5.60
2018-11-29T04:14:44.761Z,4.80
2018-11-29T04:18:47.146Z,5.60
2018-11-29T04:22:49.545Z,5.60
2018-11-29T04:26:51.907Z,5.20
2018-11-29T04:30:54.256Z,5.10
2018-11-29T04:34:56.834Z,5.30
2018-11-29T04:38:59.174Z,5.30
2018-11-29T04:43:01.555Z,5.70
2018-11-29T04:47:03.942Z,6.30
2018-11-29T04:51:05.954Z,5.30
2018-11-29T04:55:09.179Z,5.70
2018-11-29T04:59:11.615Z,5.80
2018-11-29T05:03:13.996Z,5.30
2018-11-29T05:07:16.374Z,5.20
2018-11-29T05:11:18.720Z,5.30
2018-11-29T05:15:21.050Z,5.00
2018-11-29T05:19:23.432Z,5.50
2018-11-29T05:23:25.774Z,5.70
2018-11-29T05:27:28.134Z,5.30
2018-11-29T05:31:30.454Z,5.40
2018-11-29T05:35:32.856Z,3.70
2018-11-29T05:39:35.155Z,4.20
2018-11-29T05:43:37.523Z,4.60
2018-11-29T05:47:39.834Z,4.80
2018-11-29T05:51:42.200Z,4.80
2018-11-29T05:55:44.550Z,4.90
2018-11-29T05:59:46.903Z,5.20
2018-11-29T06:03:49.239Z,4.50
2018-11-29T06:07:51.583Z,4.90
2018-11-29T06:11:53.881Z,4.70
2018-11-29T06:15:56.199Z,4.90
2018-11-29T06:19:58.510Z,4.30
2018-11-29T06:24:00.792Z,4.60
2018-11-29T06:28:03.203Z,5.30
2018-11-29T06:32:05.660Z,4.60
2018-11-29T06:36:08.221Z,4.80
2018-11-29T06:40:12.313Z,4.00
2018-11-29T06:44:14.654Z,4.70
2018-11-29T06:48:16.990Z,5.00
2018-11-29T06:52:19.250Z,4.40
2018-11-29T06:56:21.612Z,5.20
2018-11-29T07:00:31.557Z,5.00
2018-11-29T07:04:33.895Z,4.90
2018-11-29T07:08:36.255Z,4.60
2018-11-29T07:12:39.518Z,4.90
2018-11-29T07:16:41.888Z,4.60
2018-11-29T07:20:54.322Z,4.90
2018-11-29T07:24:56.623Z,4.90
2018-11-29T07:28:58.960Z,5.30
2018-11-29T07:33:01.343Z,5.20
2018-11-29T07:37:03.695Z,5.20
2018-11-29T07:41:06.144Z,5.70
2018-11-29T07:45:13.213Z,5.50
2018-11-29T07:49:15.554Z,5.00
2018-11-29T07:53:17.897Z,4.90
2018-11-29T07:57:20.224Z,5.30
2018-11-29T08:01:22.684Z,5.60
2018-11-29T08:05:25.102Z,5.40
2018-11-29T08:09:27.474Z,5.50
2018-11-29T08:13:29.782Z,4.80
2018-11-29T08:17:32.122Z,5.50
2018-11-29T08:21:34.543Z,4.80
2018-11-29T08:25:36.872Z,4.90
2018-11-29T08:29:39.202Z,4.90
2018-11-29T08:33:41.569Z,5.00
2018-11-29T08:37:45.102Z,4.50
2018-11-29T08:41:47.491Z,4.70
2018-11-29T08:45:49.833Z,5.00
2018-11-29T08:49:52.179Z,5.00
2018-11-29T08:53:54.538Z,4.40
2018-11-29T08:57:56.894Z,4.30
2018-11-29T09:01:59.364Z,4.50
2018-11-29T09:06:01.718Z,5.10
2018-11-29T09:10:06.024Z,4.80
2018-11-29T09:14:08.401Z,5.10
2018-11-29T09:18:10.766Z,5.50
2018-11-29T09:22:13.119Z,5.40
2018-11-29T09:26:15.502Z,5.80
2018-11-29T09:30:20.598Z,5.80
2018-11-29T09:34:22.951Z,5.30
2018-11-29T09:38:25.288Z,4.80
2018-11-29T09:42:27.663Z,4.80
2018-11-29T09:46:30.036Z,4.60
2018-11-29T09:50:32.358Z,4.80
2018-11-29T09:54:34.737Z,5.10
2018-11-29T09:58:37.098Z,5.60
2018-11-29T10:02:39.486Z,5.10
2018-11-29T10:06:41.822Z,5.40
2018-11-29T10:10:44.186Z,5.30
2018-11-29T10:14:46.553Z,5.40
2018-11-29T10:18:48.861Z,6.30
2018-11-29T10:22:51.242Z,6.50
2018-11-29T10:26:53.661Z,6.00
2018-11-29T10:30:57.481Z,6.00
2018-11-29T10:34:59.783Z,6.30
2018-11-29T10:39:02.246Z,7.00
2018-11-29T10:43:04.713Z,6.70
2018-11-29T10:47:07.073Z,7.20
2018-11-29T10:51:09.398Z,7.10
2018-11-29T10:55:15.710Z,6.90
2018-11-29T10:59:18.043Z,6.20
2018-11-29T11:03:20.942Z,7.30
2018-11-29T11:07:23.292Z,7.40
2018-11-29T11:11:25.711Z,7.20
2018-11-29T11:15:28.142Z,7.00
2018-11-29T11:19:30.469Z,6.90
2018-11-29T11:23:32.803Z,7.10
2018-11-29T11:27:35.156Z,7.70
2018-11-29T11:31:37.523Z,8.00
2018-11-29T11:35:39.875Z,6.40
2018-11-29T11:39:42.540Z,7.10
2018-11-29T11:43:44.626Z,7.20
2018-11-29T11:47:47.077Z,7.70
2018-11-29T11:51:49.397Z,7.60
2018-11-29T11:55:53.705Z,7.80
2018-11-29T11:59:54.023Z,7.00
2018-11-29T12:03:56.395Z,6.70
2018-11-29T12:07:58.777Z,7.20
2018-11-29T12:12:01.226Z,6.40
2018-11-29T12:16:03.803Z,6.40
2018-11-29T12:20:09.363Z,6.70
2018-11-29T12:24:11.726Z,7.00
2018-11-29T12:28:14.071Z,6.70
2018-11-29T12:32:16.346Z,6.70
2018-11-29T12:36:18.706Z,6.30
2018-11-29T12:40:21.087Z,6.80
2018-11-29T12:44:23.440Z,6.50
2018-11-29T12:48:25.787Z,6.30
2018-11-29T12:52:28.146Z,6.10
2018-11-29T12:56:30.548Z,6.40
2018-11-29T13:00:32.946Z,5.80
2018-11-29T13:04:35.596Z,6.20
2018-11-29T13:08:38.188Z,5.70
2018-11-29T13:12:40.606Z,5.80
2018-11-29T13:16:42.944Z,6.20
2018-11-29T13:20:45.266Z,6.90
2018-11-29T13:24:47.681Z,6.40
2018-11-29T13:28:50.049Z,6.10
2018-11-29T13:32:54.472Z,7.00
2018-11-29T13:36:56.868Z,6.00
2018-11-29T13:40:59.226Z,5.90
2018-11-29T13:45:01.625Z,6.00
2018-11-29T13:49:04.616Z,6.90
2018-11-29T13:53:07.071Z,6.90
2018-11-29T13:57:09.427Z,7.00
2018-11-29T14:01:11.773Z,7.70
2018-11-29T14:05:14.279Z,8.10
2018-11-29T14:09:16.687Z,7.80
2018-11-29T14:13:19.059Z,7.30
2018-11-29T14:17:21.432Z,6.20
2018-11-29T14:21:23.836Z,6.70
2018-11-29T14:25:26.261Z,5.70
2018-11-29T14:29:28.650Z,4.90
2018-11-29T14:33:30.991Z,5.00
2018-11-29T14:37:33.386Z,4.60
2018-11-29T14:41:35.714Z,6.40
2018-11-29T14:45:38.613Z,5.90
2018-11-29T14:49:41.806Z,7.00
2018-11-29T14:53:44.496Z,4.10
2018-11-29T14:57:46.897Z,5.40
2018-11-29T15:01:49.296Z,6.90
2018-11-29T15:05:51.654Z,7.10
2018-11-29T15:09:54.103Z,6.30
2018-11-29T15:13:56.574Z,6.60
2018-11-29T15:17:58.907Z,7.40
2018-11-29T15:22:01.376Z,7.90
2018-11-29T15:26:03.795Z,8.00
2018-11-29T15:30:10.900Z,6.10
2018-11-29T15:34:13.214Z,7.40
2018-11-29T15:38:15.560Z,7.90
2018-11-29T15:42:17.990Z,8.60
2018-11-29T15:46:20.362Z,8.60
2018-11-29T15:50:22.715Z,8.40
2018-11-29T15:54:25.094Z,7.20
2018-11-29T15:58:27.541Z,6.10
2018-11-29T16:02:30.042Z,6.80
2018-11-29T16:06:32.419Z,7.20
2018-11-29T16:10:34.829Z,7.80
2018-11-29T16:14:37.137Z,7.00
2018-11-29T16:18:39.564Z,7.80
2018-11-29T16:22:41.938Z,8.20
2018-11-29T16:26:44.400Z,8.50
2018-11-29T16:30:48.753Z,8.20
2018-11-29T16:34:51.149Z,7.80
2018-11-29T16:38:53.546Z,7.50
2018-11-29T16:42:55.930Z,8.30
2018-11-29T16:46:58.288Z,8.30
2018-11-29T16:51:00.714Z,7.60
2018-11-29T16:55:03.259Z,9.20
2018-11-29T16:59:05.860Z,9.00
2018-11-29T17:03:08.328Z,9.30
2018-11-29T17:07:10.719Z,8.50
2018-11-29T17:11:13.200Z,7.80
2018-11-29T17:15:17.685Z,7.90
2018-11-29T17:19:20.082Z,8.10
2018-11-29T17:23:22.484Z,8.60
2018-11-29T17:27:24.892Z,9.30
2018-11-29T17:31:27.305Z,9.80
2018-11-29T17:35:29.650Z,8.30
2018-11-29T17:39:32.069Z,8.80
2018-11-29T17:43:34.700Z,9.00
2018-11-29T17:47:37.179Z,9.10
2018-11-29T17:51:39.600Z,9.00
2018-11-29T17:55:42.088Z,7.50
2018-11-29T17:59:44.383Z,7.60
2018-11-29T18:03:46.924Z,7.40
2018-11-29T18:07:49.348Z,7.50
2018-11-29T18:11:51.722Z,7.80
2018-11-29T18:15:54.059Z,8.70
2018-11-29T18:19:56.475Z,9.20
2018-11-29T18:23:58.967Z,9.00
2018-11-29T18:28:01.537Z,7.70
2018-11-29T18:32:03.938Z,8.50
2018-11-29T18:36:06.385Z,8.20
2018-11-29T18:40:12.037Z,8.50
2018-11-29T18:44:14.349Z,8.50
2018-11-29T18:48:16.804Z,7.30
2018-11-29T18:52:19.156Z,6.00
2018-11-29T18:56:21.618Z,7.30
2018-11-29T19:00:26.102Z,5.80
2018-11-29T19:04:28.446Z,7.20
2018-11-29T19:08:30.828Z,7.40
2018-11-29T19:12:33.392Z,7.50
2018-11-29T19:16:35.803Z,7.60
2018-11-29T19:20:38.516Z,7.30
2018-11-29T19:24:40.706Z,7.50
2018-11-29T19:28:43.138Z,8.00
2018-11-29T19:32:47.401Z,8.00
2018-11-29T19:36:49.815Z,8.20
2018-11-29T19:40:52.271Z,6.70
2018-11-29T19:44:54.963Z,8.20
2018-11-29T19:48:57.407Z,7.70
2018-11-29T19:53:00.718Z,7.60
2018-11-29T19:57:03.123Z,6.50
2018-11-29T20:01:05.612Z,7.60
2018-11-29T20:05:09.441Z,7.40
2018-11-29T20:09:11.957Z,8.30
2018-11-29T20:13:14.898Z,7.70
2018-11-29T20:17:17.252Z,7.10
2018-11-29T20:21:19.663Z,6.70
2018-11-29T20:25:23.417Z,8.40
2018-11-29T20:29:25.912Z,8.90
2018-11-29T20:33:28.397Z,8.70
2018-11-29T20:37:30.937Z,6.90
2018-11-29T20:41:33.354Z,7.50
2018-11-29T20:45:40.400Z,6.80
2018-11-29T20:49:42.820Z,8.00
2018-11-29T20:53:45.238Z,7.90
2018-11-29T20:57:47.623Z,8.10
2018-11-29T21:01:50.067Z,7.40
2018-11-29T21:05:52.556Z,7.10
2018-11-29T21:09:55.435Z,7.20
2018-11-29T21:13:58.376Z,6.30
2018-11-29T21:18:00.790Z,6.30
2018-11-29T21:22:03.253Z,7.10
2018-11-29T21:26:05.796Z,7.10
2018-11-29T21:30:10.371Z,6.00
2018-11-29T21:34:13.405Z,5.50
2018-11-29T21:38:17.959Z,6.80
2018-11-29T21:42:20.410Z,6.80
2018-11-29T21:46:22.796Z,7.40
2018-11-29T21:50:25.186Z,6.80
2018-11-29T21:54:27.526Z,7.10
2018-11-29T21:58:29.955Z,7.20
2018-11-29T22:02:32.319Z,7.00
2018-11-29T22:06:34.686Z,7.10
2018-11-29T22:10:37.048Z,6.80
2018-11-29T22:14:39.381Z,6.20
2018-11-29T22:18:41.816Z,7.00
2018-11-29T22:22:44.195Z,7.00
2018-11-29T22:26:46.535Z,6.40
2018-11-29T22:30:48.939Z,6.10
2018-11-29T22:34:51.315Z,5.70
2018-11-29T22:38:53.674Z,6.30
2018-11-29T22:42:56.054Z,5.80
2018-11-29T22:46:58.435Z,7.20
2018-11-29T22:51:00.764Z,6.80
2018-11-29T22:55:03.269Z,7.00
2018-11-29T22:59:05.656Z,7.10
2018-11-29T23:03:08.040Z,6.90
2018-11-29T23:07:10.371Z,6.20
2018-11-29T23:11:12.772Z,7.20
2018-11-29T23:15:15.209Z,8.10
2018-11-29T23:19:17.554Z,5.40
2018-11-29T23:23:19.926Z,4.60
2018-11-29T23:27:22.369Z,5.30
2018-11-29T23:31:24.704Z,4.90
2018-11-29T23:35:27.096Z,5.00
2018-11-29T23:39:29.455Z,5.20
2018-11-29T23:43:31.764Z,6.10
2018-11-29T23:47:34.116Z,6.00
2018-11-29T23:51:36.422Z,7.20
2018-11-29T23:55:38.777Z,6.70
2018-11-29T23:59:41.098Z,7.00
